Etusivu
METAR-TAF:

METAR-TAF

Lentoasemat :

Saglek Bay, Newfoundland ja Labrador, Kanada

Leveyspiiri: 58-20N, Pituuspiiri: 062-35W, korkeus merenpinnasta: 483 m

Tämänhetkinen sää

Tämä raportti tehtiin 10 minuuttia sitten, kello 15.11 UTC
Tuuli 4 kn luoteesta, vaihdellen lännen ja pohjoisen/koillisen välillä
Lämpötila 3°C
Kosteus 100%
Ilmanpaine 998 hPa
Muutamia pilviä 1200 ft:n korkeudessa
Hajonneita pilviä 2600 ft:n korkeudessa

METAR: CWZZ 061511Z AUTO 31004KT 280V020 ////SM FEW012 BKN026 03/03 A2948

Aika: 12:21 (15:21 UTC)


TAF: puuttuu

Säähavainnot ja -ennusteet yli 4000 lentoasemalta (METAR- ja TAF-raportit).

Käytössä olevat sääasemat on merkitty karttaan keltaisilla ja punaisilla pisteillä.

Aseta hiiri pisteen päälle nähdäksesi sääaseman nimen.

Klikkaa sitten nähdäksesi säähavainnot ja -ennusteet.

Kartan vaihtaminen: klikkaa mustalla rastilla varustettuja vihreitä pisteitä, niin voit zoomata sisään; viivalla varustettua vihreää pistettä, niin voit zoomata ulos tai vihreitä nuolia, niin pääset viereisille kartoille.


METAR-TAF: